sensor_id;sensor_type;location;lat;lon;timestamp;P1;durP1;ratioP1;P2;durP2;ratioP2
54945;SDS011;40846;44.788;20.486;2023-04-23T00:01:51;18.33;;;6.50;;
54945;SDS011;40846;44.788;20.486;2023-04-23T00:04:18;17.20;;;5.90;;
54945;SDS011;40846;44.788;20.486;2023-04-23T00:06:45;17.10;;;6.63;;
54945;SDS011;40846;44.788;20.486;2023-04-23T00:09:12;21.35;;;6.82;;
54945;SDS011;40846;44.788;20.486;2023-04-23T00:11:40;16.17;;;6.15;;
54945;SDS011;40846;44.788;20.486;2023-04-23T00:14:07;16.10;;;6.03;;
54945;SDS011;40846;44.788;20.486;2023-04-23T00:16:34;16.05;;;6.13;;
54945;SDS011;40846;44.788;20.486;2023-04-23T00:19:00;16.80;;;6.35;;
54945;SDS011;40846;44.788;20.486;2023-04-23T00:21:26;18.17;;;6.40;;
54945;SDS011;40846;44.788;20.486;2023-04-23T00:23:53;12.60;;;5.60;;
54945;SDS011;40846;44.788;20.486;2023-04-23T00:26:19;19.80;;;5.88;;
54945;SDS011;40846;44.788;20.486;2023-04-23T00:28:45;15.93;;;5.57;;
54945;SDS011;40846;44.788;20.486;2023-04-23T00:31:11;13.75;;;5.43;;
54945;SDS011;40846;44.788;20.486;2023-04-23T00:33:37;19.60;;;6.53;;
54945;SDS011;40846;44.788;20.486;2023-04-23T00:36:04;18.80;;;6.25;;
54945;SDS011;40846;44.788;20.486;2023-04-23T00:38:31;18.90;;;6.45;;
54945;SDS011;40846;44.788;20.486;2023-04-23T00:40:56;16.27;;;6.68;;
54945;SDS011;40846;44.788;20.486;2023-04-23T00:43:22;16.10;;;6.72;;
54945;SDS011;40846;44.788;20.486;2023-04-23T00:45:48;29.63;;;6.75;;
54945;SDS011;40846;44.788;20.486;2023-04-23T00:48:15;13.60;;;7.63;;
54945;SDS011;40846;44.788;20.486;2023-04-23T00:50:41;26.63;;;7.70;;
54945;SDS011;40846;44.788;20.486;2023-04-23T00:53:07;18.70;;;7.25;;
54945;SDS011;40846;44.788;20.486;2023-04-23T00:55:34;26.52;;;8.45;;
54945;SDS011;40846;44.788;20.486;2023-04-23T01:01:22;22.15;;;8.55;;
54945;SDS011;40846;44.788;20.486;2023-04-23T01:03:48;22.08;;;9.10;;
54945;SDS011;40846;44.788;20.486;2023-04-23T01:06:15;21.13;;;10.77;;
54945;SDS011;40846;44.788;20.486;2023-04-23T01:08:41;21.30;;;8.23;;
54945;SDS011;40846;44.788;20.486;2023-04-23T01:11:08;17.33;;;8.52;;
54945;SDS011;40846;44.788;20.486;2023-04-23T01:13:34;13.13;;;7.95;;
54945;SDS011;40846;44.788;20.486;2023-04-23T01:16:00;30.42;;;8.90;;
54945;SDS011;40846;44.788;20.486;2023-04-23T01:18:27;19.98;;;7.72;;
54945;SDS011;40846;44.788;20.486;2023-04-23T01:20:54;19.73;;;7.68;;
54945;SDS011;40846;44.788;20.486;2023-04-23T01:23:20;25.08;;;7.82;;
54945;SDS011;40846;44.788;20.486;2023-04-23T01:25:46;19.38;;;7.65;;
54945;SDS011;40846;44.788;20.486;2023-04-23T01:31:16;12.68;;;6.43;;
54945;SDS011;40846;44.788;20.486;2023-04-23T01:33:43;17.67;;;7.18;;
54945;SDS011;40846;44.788;20.486;2023-04-23T01:36:09;11.60;;;6.13;;
54945;SDS011;40846;44.788;20.486;2023-04-23T01:38:36;21.23;;;7.07;;
54945;SDS011;40846;44.788;20.486;2023-04-23T01:41:03;18.42;;;6.95;;
54945;SDS011;40846;44.788;20.486;2023-04-23T01:46:51;18.85;;;6.57;;
54945;SDS011;40846;44.788;20.486;2023-04-23T01:49:17;13.55;;;6.32;;
54945;SDS011;40846;44.788;20.486;2023-04-23T01:51:43;15.98;;;6.70;;
54945;SDS011;40846;44.788;20.486;2023-04-23T01:54:09;18.30;;;6.88;;
54945;SDS011;40846;44.788;20.486;2023-04-23T01:56:34;17.95;;;6.13;;
54945;SDS011;40846;44.788;20.486;2023-04-23T01:59:00;11.60;;;6.57;;
54945;SDS011;40846;44.788;20.486;2023-04-23T02:01:39;16.55;;;7.53;;
54945;SDS011;40846;44.788;20.486;2023-04-23T02:04:06;11.73;;;6.30;;
54945;SDS011;40846;44.788;20.486;2023-04-23T02:06:35;16.17;;;6.85;;
54945;SDS011;40846;44.788;20.486;2023-04-23T02:09:03;21.05;;;7.13;;
54945;SDS011;40846;44.788;20.486;2023-04-23T02:11:29;13.75;;;6.80;;
54945;SDS011;40846;44.788;20.486;2023-04-23T02:13:55;19.50;;;8.30;;
54945;SDS011;40846;44.788;20.486;2023-04-23T02:16:24;14.20;;;7.20;;
54945;SDS011;40846;44.788;20.486;2023-04-23T02:18:50;18.40;;;7.53;;
54945;SDS011;40846;44.788;20.486;2023-04-23T02:21:16;13.68;;;7.00;;
54945;SDS011;40846;44.788;20.486;2023-04-23T02:23:42;15.50;;;7.45;;
54945;SDS011;40846;44.788;20.486;2023-04-23T02:26:08;15.73;;;6.82;;
54945;SDS011;40846;44.788;20.486;2023-04-23T02:28:34;16.98;;;7.25;;
54945;SDS011;40846;44.788;20.486;2023-04-23T02:31:01;13.25;;;6.47;;
54945;SDS011;40846;44.788;20.486;2023-04-23T02:33:26;13.75;;;6.70;;
54945;SDS011;40846;44.788;20.486;2023-04-23T02:35:52;19.02;;;7.03;;
54945;SDS011;40846;44.788;20.486;2023-04-23T02:38:18;19.30;;;6.97;;
54945;SDS011;40846;44.788;20.486;2023-04-23T02:40:43;12.02;;;6.80;;
54945;SDS011;40846;44.788;20.486;2023-04-23T02:43:09;15.30;;;7.60;;
54945;SDS011;40846;44.788;20.486;2023-04-23T02:45:35;17.27;;;7.00;;
54945;SDS011;40846;44.788;20.486;2023-04-23T02:48:01;15.10;;;6.93;;
54945;SDS011;40846;44.788;20.486;2023-04-23T02:50:26;15.35;;;7.10;;
54945;SDS011;40846;44.788;20.486;2023-04-23T02:52:52;12.55;;;6.70;;
54945;SDS011;40846;44.788;20.486;2023-04-23T02:55:18;23.80;;;6.70;;
54945;SDS011;40846;44.788;20.486;2023-04-23T02:57:44;22.02;;;8.07;;
54945;SDS011;40846;44.788;20.486;2023-04-23T03:00:09;13.50;;;6.85;;
54945;SDS011;40846;44.788;20.486;2023-04-23T03:02:36;16.83;;;7.15;;
54945;SDS011;40846;44.788;20.486;2023-04-23T03:05:02;14.98;;;6.93;;
54945;SDS011;40846;44.788;20.486;2023-04-23T03:07:29;18.88;;;6.63;;
54945;SDS011;40846;44.788;20.486;2023-04-23T03:09:55;14.25;;;5.90;;
54945;SDS011;40846;44.788;20.486;2023-04-23T03:12:21;19.52;;;6.97;;
54945;SDS011;40846;44.788;20.486;2023-04-23T03:14:47;11.80;;;6.75;;
54945;SDS011;40846;44.788;20.486;2023-04-23T03:17:13;13.80;;;6.15;;
54945;SDS011;40846;44.788;20.486;2023-04-23T03:19:41;20.63;;;6.10;;
54945;SDS011;40846;44.788;20.486;2023-04-23T03:22:07;20.73;;;7.47;;
54945;SDS011;40846;44.788;20.486;2023-04-23T03:24:34;13.57;;;6.03;;
54945;SDS011;40846;44.788;20.486;2023-04-23T03:27:00;14.50;;;5.78;;
54945;SDS011;40846;44.788;20.486;2023-04-23T03:29:26;14.18;;;5.72;;
54945;SDS011;40846;44.788;20.486;2023-04-23T03:31:52;15.15;;;5.97;;
54945;SDS011;40846;44.788;20.486;2023-04-23T03:34:18;10.27;;;5.05;;
54945;SDS011;40846;44.788;20.486;2023-04-23T03:36:44;16.33;;;5.65;;
54945;SDS011;40846;44.788;20.486;2023-04-23T03:39:13;16.58;;;5.55;;
54945;SDS011;40846;44.788;20.486;2023-04-23T03:41:39;18.00;;;5.57;;
54945;SDS011;40846;44.788;20.486;2023-04-23T03:44:05;15.25;;;5.55;;
54945;SDS011;40846;44.788;20.486;2023-04-23T03:46:31;11.77;;;6.03;;
54945;SDS011;40846;44.788;20.486;2023-04-23T03:48:57;17.15;;;5.80;;
54945;SDS011;40846;44.788;20.486;2023-04-23T03:51:23;11.77;;;6.15;;
54945;SDS011;40846;44.788;20.486;2023-04-23T03:53:49;17.83;;;6.40;;
54945;SDS011;40846;44.788;20.486;2023-04-23T03:56:15;18.15;;;6.00;;
54945;SDS011;40846;44.788;20.486;2023-04-23T03:58:41;28.77;;;6.60;;
54945;SDS011;40846;44.788;20.486;2023-04-23T04:01:07;14.60;;;5.10;;
54945;SDS011;40846;44.788;20.486;2023-04-23T04:03:32;10.80;;;5.55;;
54945;SDS011;40846;44.788;20.486;2023-04-23T04:05:58;17.73;;;5.38;;
54945;SDS011;40846;44.788;20.486;2023-04-23T04:08:24;17.13;;;6.65;;
54945;SDS011;40846;44.788;20.486;2023-04-23T04:10:51;13.73;;;6.47;;
54945;SDS011;40846;44.788;20.486;2023-04-23T04:13:16;13.48;;;6.63;;
54945;SDS011;40846;44.788;20.486;2023-04-23T04:15:43;13.68;;;7.00;;
54945;SDS011;40846;44.788;20.486;2023-04-23T04:18:09;10.55;;;6.07;;
54945;SDS011;40846;44.788;20.486;2023-04-23T04:20:35;15.57;;;5.93;;
54945;SDS011;40846;44.788;20.486;2023-04-23T04:23:00;16.48;;;5.80;;
54945;SDS011;40846;44.788;20.486;2023-04-23T04:25:26;12.85;;;5.57;;
54945;SDS011;40846;44.788;20.486;2023-04-23T04:27:53;11.20;;;5.28;;
54945;SDS011;40846;44.788;20.486;2023-04-23T04:30:18;11.00;;;6.47;;
54945;SDS011;40846;44.788;20.486;2023-04-23T04:32:45;20.08;;;6.35;;
54945;SDS011;40846;44.788;20.486;2023-04-23T04:35:11;13.95;;;5.10;;
54945;SDS011;40846;44.788;20.486;2023-04-23T04:37:38;19.15;;;6.25;;
54945;SDS011;40846;44.788;20.486;2023-04-23T04:40:05;15.00;;;6.00;;
54945;SDS011;40846;44.788;20.486;2023-04-23T04:42:33;10.13;;;4.63;;
54945;SDS011;40846;44.788;20.486;2023-04-23T04:44:59;12.80;;;5.80;;
54945;SDS011;40846;44.788;20.486;2023-04-23T04:47:24;11.43;;;5.22;;
54945;SDS011;40846;44.788;20.486;2023-04-23T04:49:50;19.92;;;5.97;;
54945;SDS011;40846;44.788;20.486;2023-04-23T04:52:16;9.25;;;5.10;;
54945;SDS011;40846;44.788;20.486;2023-04-23T04:54:42;16.13;;;5.72;;
54945;SDS011;40846;44.788;20.486;2023-04-23T04:57:07;16.63;;;5.78;;
54945;SDS011;40846;44.788;20.486;2023-04-23T04:59:33;15.02;;;5.25;;
54945;SDS011;40846;44.788;20.486;2023-04-23T05:01:59;15.20;;;5.35;;
54945;SDS011;40846;44.788;20.486;2023-04-23T05:04:24;16.10;;;5.00;;
54945;SDS011;40846;44.788;20.486;2023-04-23T05:06:50;12.50;;;6.15;;
54945;SDS011;40846;44.788;20.486;2023-04-23T05:09:16;17.83;;;5.40;;
54945;SDS011;40846;44.788;20.486;2023-04-23T05:11:42;11.52;;;5.18;;
54945;SDS011;40846;44.788;20.486;2023-04-23T05:14:07;11.45;;;5.32;;
54945;SDS011;40846;44.788;20.486;2023-04-23T05:16:33;25.88;;;6.05;;
54945;SDS011;40846;44.788;20.486;2023-04-23T05:18:59;17.60;;;4.75;;
54945;SDS011;40846;44.788;20.486;2023-04-23T05:21:26;9.95;;;4.88;;
54945;SDS011;40846;44.788;20.486;2023-04-23T05:23:55;19.60;;;4.80;;
54945;SDS011;40846;44.788;20.486;2023-04-23T05:26:21;10.90;;;4.55;;
54945;SDS011;40846;44.788;20.486;2023-04-23T05:28:47;10.05;;;4.55;;
54945;SDS011;40846;44.788;20.486;2023-04-23T05:31:13;11.88;;;5.13;;
54945;SDS011;40846;44.788;20.486;2023-04-23T05:33:39;15.32;;;4.85;;
54945;SDS011;40846;44.788;20.486;2023-04-23T05:36:07;10.43;;;4.70;;
54945;SDS011;40846;44.788;20.486;2023-04-23T05:38:33;17.05;;;5.03;;
54945;SDS011;40846;44.788;20.486;2023-04-23T05:40:59;9.40;;;4.75;;
54945;SDS011;40846;44.788;20.486;2023-04-23T05:43:25;12.15;;;4.45;;
54945;SDS011;40846;44.788;20.486;2023-04-23T05:45:51;11.48;;;5.20;;
54945;SDS011;40846;44.788;20.486;2023-04-23T05:48:17;17.48;;;5.05;;
54945;SDS011;40846;44.788;20.486;2023-04-23T05:50:42;16.33;;;6.00;;
54945;SDS011;40846;44.788;20.486;2023-04-23T05:53:08;10.73;;;4.85;;
54945;SDS011;40846;44.788;20.486;2023-04-23T05:55:34;19.50;;;5.40;;
54945;SDS011;40846;44.788;20.486;2023-04-23T05:57:59;10.48;;;4.68;;
54945;SDS011;40846;44.788;20.486;2023-04-23T06:00:26;9.52;;;5.20;;
54945;SDS011;40846;44.788;20.486;2023-04-23T06:02:52;10.90;;;4.40;;
54945;SDS011;40846;44.788;20.486;2023-04-23T06:05:18;13.30;;;4.63;;
54945;SDS011;40846;44.788;20.486;2023-04-23T06:07:44;12.63;;;5.28;;
54945;SDS011;40846;44.788;20.486;2023-04-23T06:10:10;17.45;;;4.45;;
54945;SDS011;40846;44.788;20.486;2023-04-23T06:12:36;11.85;;;4.80;;
54945;SDS011;40846;44.788;20.486;2023-04-23T06:15:06;11.48;;;4.68;;
54945;SDS011;40846;44.788;20.486;2023-04-23T06:17:33;16.35;;;4.47;;
54945;SDS011;40846;44.788;20.486;2023-04-23T06:20:00;15.13;;;4.53;;
54945;SDS011;40846;44.788;20.486;2023-04-23T06:22:26;9.35;;;4.40;;
54945;SDS011;40846;44.788;20.486;2023-04-23T06:24:51;21.95;;;5.05;;
54945;SDS011;40846;44.788;20.486;2023-04-23T06:27:19;16.90;;;4.72;;
54945;SDS011;40846;44.788;20.486;2023-04-23T06:33:57;12.43;;;4.50;;
54945;SDS011;40846;44.788;20.486;2023-04-23T06:36:24;17.73;;;4.93;;
54945;SDS011;40846;44.788;20.486;2023-04-23T06:38:50;7.30;;;3.95;;
54945;SDS011;40846;44.788;20.486;2023-04-23T06:41:16;11.27;;;4.68;;
54945;SDS011;40846;44.788;20.486;2023-04-23T06:43:45;14.77;;;4.55;;
54945;SDS011;40846;44.788;20.486;2023-04-23T06:46:12;10.68;;;5.05;;
54945;SDS011;40846;44.788;20.486;2023-04-23T06:48:38;12.40;;;5.15;;
54945;SDS011;40846;44.788;20.486;2023-04-23T06:51:07;14.77;;;4.95;;
54945;SDS011;40846;44.788;20.486;2023-04-23T06:53:33;7.72;;;4.07;;
54945;SDS011;40846;44.788;20.486;2023-04-23T06:55:58;21.55;;;5.65;;
54945;SDS011;40846;44.788;20.486;2023-04-23T06:58:24;10.18;;;3.97;;
54945;SDS011;40846;44.788;20.486;2023-04-23T07:00:55;9.57;;;4.55;;
54945;SDS011;40846;44.788;20.486;2023-04-23T07:03:23;8.90;;;4.40;;
54945;SDS011;40846;44.788;20.486;2023-04-23T07:05:50;11.50;;;4.95;;
54945;SDS011;40846;44.788;20.486;2023-04-23T07:08:16;10.80;;;4.97;;
54945;SDS011;40846;44.788;20.486;2023-04-23T07:10:50;18.17;;;4.72;;
54945;SDS011;40846;44.788;20.486;2023-04-23T07:13:17;15.55;;;4.38;;
54945;SDS011;40846;44.788;20.486;2023-04-23T07:15:43;9.98;;;4.00;;
54945;SDS011;40846;44.788;20.486;2023-04-23T07:18:09;14.55;;;4.28;;
54945;SDS011;40846;44.788;20.486;2023-04-23T07:20:35;7.85;;;3.72;;
54945;SDS011;40846;44.788;20.486;2023-04-23T07:23:01;11.15;;;4.63;;
54945;SDS011;40846;44.788;20.486;2023-04-23T07:25:28;10.05;;;4.20;;
54945;SDS011;40846;44.788;20.486;2023-04-23T07:27:57;13.60;;;3.97;;
54945;SDS011;40846;44.788;20.486;2023-04-23T07:30:24;16.13;;;4.35;;
54945;SDS011;40846;44.788;20.486;2023-04-23T07:32:50;10.75;;;3.45;;
54945;SDS011;40846;44.788;20.486;2023-04-23T07:35:16;7.70;;;3.25;;
54945;SDS011;40846;44.788;20.486;2023-04-23T07:37:42;10.30;;;4.55;;
54945;SDS011;40846;44.788;20.486;2023-04-23T07:40:08;10.13;;;3.72;;
54945;SDS011;40846;44.788;20.486;2023-04-23T07:42:34;13.50;;;3.95;;
54945;SDS011;40846;44.788;20.486;2023-04-23T07:45:01;12.35;;;4.65;;
54945;SDS011;40846;44.788;20.486;2023-04-23T07:47:27;11.57;;;3.58;;
54945;SDS011;40846;44.788;20.486;2023-04-23T07:49:52;9.45;;;3.30;;
54945;SDS011;40846;44.788;20.486;2023-04-23T07:52:18;8.32;;;3.58;;
54945;SDS011;40846;44.788;20.486;2023-04-23T07:54:44;8.77;;;3.30;;
54945;SDS011;40846;44.788;20.486;2023-04-23T07:57:10;6.78;;;3.33;;
54945;SDS011;40846;44.788;20.486;2023-04-23T07:59:36;16.63;;;3.80;;
54945;SDS011;40846;44.788;20.486;2023-04-23T08:02:04;11.40;;;3.40;;
54945;SDS011;40846;44.788;20.486;2023-04-23T08:04:30;9.63;;;4.13;;
54945;SDS011;40846;44.788;20.486;2023-04-23T08:06:56;9.48;;;3.60;;
54945;SDS011;40846;44.788;20.486;2023-04-23T08:09:22;8.38;;;3.90;;
54945;SDS011;40846;44.788;20.486;2023-04-23T08:11:50;13.25;;;4.68;;
54945;SDS011;40846;44.788;20.486;2023-04-23T08:14:16;9.65;;;3.45;;
54945;SDS011;40846;44.788;20.486;2023-04-23T08:16:42;14.15;;;3.50;;
54945;SDS011;40846;44.788;20.486;2023-04-23T08:19:09;6.85;;;3.85;;
54945;SDS011;40846;44.788;20.486;2023-04-23T08:21:35;14.30;;;4.43;;
54945;SDS011;40846;44.788;20.486;2023-04-23T08:24:01;7.38;;;3.75;;
54945;SDS011;40846;44.788;20.486;2023-04-23T08:26:29;7.55;;;3.60;;
54945;SDS011;40846;44.788;20.486;2023-04-23T08:28:55;9.75;;;4.13;;
54945;SDS011;40846;44.788;20.486;2023-04-23T08:31:21;17.55;;;3.65;;
54945;SDS011;40846;44.788;20.486;2023-04-23T08:33:47;6.53;;;3.10;;
54945;SDS011;40846;44.788;20.486;2023-04-23T08:36:13;13.93;;;3.42;;
54945;SDS011;40846;44.788;20.486;2023-04-23T08:38:39;13.30;;;3.25;;
54945;SDS011;40846;44.788;20.486;2023-04-23T08:41:05;15.27;;;4.03;;
54945;SDS011;40846;44.788;20.486;2023-04-23T08:43:42;13.43;;;3.42;;
54945;SDS011;40846;44.788;20.486;2023-04-23T08:46:14;11.05;;;4.50;;
54945;SDS011;40846;44.788;20.486;2023-04-23T08:48:43;8.38;;;3.60;;
54945;SDS011;40846;44.788;20.486;2023-04-23T08:51:09;11.02;;;5.72;;
54945;SDS011;40846;44.788;20.486;2023-04-23T08:53:42;7.35;;;2.97;;
54945;SDS011;40846;44.788;20.486;2023-04-23T08:56:09;6.70;;;3.30;;
54945;SDS011;40846;44.788;20.486;2023-04-23T08:58:36;7.85;;;3.13;;
54945;SDS011;40846;44.788;20.486;2023-04-23T09:01:03;11.95;;;3.20;;
54945;SDS011;40846;44.788;20.486;2023-04-23T09:03:29;9.73;;;3.72;;
54945;SDS011;40846;44.788;20.486;2023-04-23T09:05:58;14.63;;;4.15;;
54945;SDS011;40846;44.788;20.486;2023-04-23T09:08:24;7.80;;;3.92;;
54945;SDS011;40846;44.788;20.486;2023-04-23T09:10:53;9.00;;;2.88;;
54945;SDS011;40846;44.788;20.486;2023-04-23T09:13:32;11.48;;;3.78;;
54945;SDS011;40846;44.788;20.486;2023-04-23T09:15:59;16.10;;;4.35;;
54945;SDS011;40846;44.788;20.486;2023-04-23T09:18:25;9.70;;;4.50;;
54945;SDS011;40846;44.788;20.486;2023-04-23T09:20:51;10.43;;;3.88;;
54945;SDS011;40846;44.788;20.486;2023-04-23T09:23:17;8.60;;;4.22;;
54945;SDS011;40846;44.788;20.486;2023-04-23T09:25:45;8.55;;;3.53;;
54945;SDS011;40846;44.788;20.486;2023-04-23T09:28:11;13.70;;;3.55;;
54945;SDS011;40846;44.788;20.486;2023-04-23T09:30:41;10.13;;;3.22;;
54945;SDS011;40846;44.788;20.486;2023-04-23T09:33:09;7.40;;;3.38;;
54945;SDS011;40846;44.788;20.486;2023-04-23T09:35:36;8.57;;;3.83;;
54945;SDS011;40846;44.788;20.486;2023-04-23T09:38:03;5.43;;;3.70;;
54945;SDS011;40846;44.788;20.486;2023-04-23T09:40:32;13.77;;;4.28;;
54945;SDS011;40846;44.788;20.486;2023-04-23T09:42:58;11.63;;;3.38;;
54945;SDS011;40846;44.788;20.486;2023-04-23T09:45:27;8.98;;;3.08;;
54945;SDS011;40846;44.788;20.486;2023-04-23T09:47:54;5.32;;;3.10;;
54945;SDS011;40846;44.788;20.486;2023-04-23T09:50:34;11.60;;;3.85;;
54945;SDS011;40846;44.788;20.486;2023-04-23T09:53:02;8.07;;;3.10;;
54945;SDS011;40846;44.788;20.486;2023-04-23T09:55:33;17.55;;;3.72;;
54945;SDS011;40846;44.788;20.486;2023-04-23T09:58:03;9.60;;;3.63;;
54945;SDS011;40846;44.788;20.486;2023-04-23T10:00:33;9.18;;;3.75;;
54945;SDS011;40846;44.788;20.486;2023-04-23T10:03:00;8.85;;;3.95;;
54945;SDS011;40846;44.788;20.486;2023-04-23T10:05:26;13.13;;;3.58;;
54945;SDS011;40846;44.788;20.486;2023-04-23T10:07:54;7.95;;;3.50;;
54945;SDS011;40846;44.788;20.486;2023-04-23T10:10:21;8.15;;;3.88;;
54945;SDS011;40846;44.788;20.486;2023-04-23T10:12:48;7.10;;;3.65;;
54945;SDS011;40846;44.788;20.486;2023-04-23T10:15:17;7.07;;;3.60;;
54945;SDS011;40846;44.788;20.486;2023-04-23T10:17:43;9.93;;;3.67;;
54945;SDS011;40846;44.788;20.486;2023-04-23T10:20:11;12.10;;;3.83;;
54945;SDS011;40846;44.788;20.486;2023-04-23T10:22:38;6.07;;;3.10;;
54945;SDS011;40846;44.788;20.486;2023-04-23T10:25:08;15.45;;;3.65;;
54945;SDS011;40846;44.788;20.486;2023-04-23T10:27:40;9.95;;;3.25;;
54945;SDS011;40846;44.788;20.486;2023-04-23T10:30:07;13.57;;;3.10;;
54945;SDS011;40846;44.788;20.486;2023-04-23T10:32:35;14.18;;;3.88;;
54945;SDS011;40846;44.788;20.486;2023-04-23T10:35:02;9.88;;;3.53;;
54945;SDS011;40846;44.788;20.486;2023-04-23T10:37:29;10.35;;;3.70;;
54945;SDS011;40846;44.788;20.486;2023-04-23T10:39:57;13.20;;;3.60;;
54945;SDS011;40846;44.788;20.486;2023-04-23T10:42:32;8.80;;;3.67;;
54945;SDS011;40846;44.788;20.486;2023-04-23T10:44:58;9.13;;;3.05;;
54945;SDS011;40846;44.788;20.486;2023-04-23T10:47:24;8.65;;;3.28;;
54945;SDS011;40846;44.788;20.486;2023-04-23T10:49:49;7.13;;;3.30;;
54945;SDS011;40846;44.788;20.486;2023-04-23T10:52:16;15.02;;;3.33;;
54945;SDS011;40846;44.788;20.486;2023-04-23T10:54:43;9.65;;;3.60;;
54945;SDS011;40846;44.788;20.486;2023-04-23T10:57:21;8.55;;;4.68;;
54945;SDS011;40846;44.788;20.486;2023-04-23T10:59:50;9.55;;;3.88;;
54945;SDS011;40846;44.788;20.486;2023-04-23T11:02:18;6.90;;;3.08;;
54945;SDS011;40846;44.788;20.486;2023-04-23T11:04:44;12.15;;;3.10;;
54945;SDS011;40846;44.788;20.486;2023-04-23T11:07:17;18.05;;;4.20;;
54945;SDS011;40846;44.788;20.486;2023-04-23T11:09:47;5.25;;;3.05;;
54945;SDS011;40846;44.788;20.486;2023-04-23T11:17:15;8.65;;;3.47;;
54945;SDS011;40846;44.788;20.486;2023-04-23T11:22:38;6.90;;;3.72;;
54945;SDS011;40846;44.788;20.486;2023-04-23T11:25:09;6.93;;;3.47;;
54945;SDS011;40846;44.788;20.486;2023-04-23T11:27:43;8.40;;;3.33;;
54945;SDS011;40846;44.788;20.486;2023-04-23T11:30:10;6.75;;;3.67;;
54945;SDS011;40846;44.788;20.486;2023-04-23T11:32:38;7.38;;;3.60;;
54945;SDS011;40846;44.788;20.486;2023-04-23T11:35:18;10.25;;;3.55;;
54945;SDS011;40846;44.788;20.486;2023-04-23T11:37:45;15.15;;;3.88;;
54945;SDS011;40846;44.788;20.486;2023-04-23T11:40:15;6.35;;;3.33;;
54945;SDS011;40846;44.788;20.486;2023-04-23T11:42:46;9.00;;;3.40;;
54945;SDS011;40846;44.788;20.486;2023-04-23T11:45:18;10.50;;;3.53;;
54945;SDS011;40846;44.788;20.486;2023-04-23T11:47:45;11.05;;;3.17;;
54945;SDS011;40846;44.788;20.486;2023-04-23T11:50:17;13.65;;;3.95;;
54945;SDS011;40846;44.788;20.486;2023-04-23T11:52:47;16.73;;;3.78;;
54945;SDS011;40846;44.788;20.486;2023-04-23T11:55:14;10.23;;;3.60;;
54945;SDS011;40846;44.788;20.486;2023-04-23T11:57:41;8.30;;;3.33;;
54945;SDS011;40846;44.788;20.486;2023-04-23T12:00:12;8.77;;;3.05;;
54945;SDS011;40846;44.788;20.486;2023-04-23T12:02:53;6.40;;;3.55;;
54945;SDS011;40846;44.788;20.486;2023-04-23T12:05:33;13.40;;;3.53;;
54945;SDS011;40846;44.788;20.486;2023-04-23T12:08:07;5.82;;;3.78;;
54945;SDS011;40846;44.788;20.486;2023-04-23T12:10:47;12.98;;;3.78;;
54945;SDS011;40846;44.788;20.486;2023-04-23T12:13:14;9.23;;;3.35;;
54945;SDS011;40846;44.788;20.486;2023-04-23T12:16:01;8.82;;;3.45;;
54945;SDS011;40846;44.788;20.486;2023-04-23T12:21:10;8.68;;;3.15;;
54945;SDS011;40846;44.788;20.486;2023-04-23T12:23:39;8.20;;;3.40;;
54945;SDS011;40846;44.788;20.486;2023-04-23T12:26:10;6.97;;;3.22;;
54945;SDS011;40846;44.788;20.486;2023-04-23T12:28:52;10.13;;;3.50;;
54945;SDS011;40846;44.788;20.486;2023-04-23T12:31:23;10.55;;;3.47;;
54945;SDS011;40846;44.788;20.486;2023-04-23T12:34:04;6.40;;;2.95;;
54945;SDS011;40846;44.788;20.486;2023-04-23T12:36:31;11.68;;;3.95;;
54945;SDS011;40846;44.788;20.486;2023-04-23T12:39:19;7.63;;;3.83;;
54945;SDS011;40846;44.788;20.486;2023-04-23T12:41:53;7.15;;;3.35;;
54945;SDS011;40846;44.788;20.486;2023-04-23T12:44:28;11.80;;;3.40;;
54945;SDS011;40846;44.788;20.486;2023-04-23T12:46:59;7.15;;;3.55;;
54945;SDS011;40846;44.788;20.486;2023-04-23T12:49:30;12.43;;;3.78;;
54945;SDS011;40846;44.788;20.486;2023-04-23T12:51:57;13.68;;;4.25;;
54945;SDS011;40846;44.788;20.486;2023-04-23T12:54:26;9.85;;;3.53;;
54945;SDS011;40846;44.788;20.486;2023-04-23T12:56:54;14.80;;;3.70;;
54945;SDS011;40846;44.788;20.486;2023-04-23T12:59:20;7.85;;;3.85;;
54945;SDS011;40846;44.788;20.486;2023-04-23T13:01:46;5.65;;;3.17;;
54945;SDS011;40846;44.788;20.486;2023-04-23T13:04:12;10.13;;;3.78;;
54945;SDS011;40846;44.788;20.486;2023-04-23T13:06:39;9.63;;;3.53;;
54945;SDS011;40846;44.788;20.486;2023-04-23T13:09:05;8.45;;;3.58;;
54945;SDS011;40846;44.788;20.486;2023-04-23T13:11:34;6.15;;;3.17;;
54945;SDS011;40846;44.788;20.486;2023-04-23T13:14:01;10.70;;;3.17;;
54945;SDS011;40846;44.788;20.486;2023-04-23T13:16:26;8.43;;;3.33;;
54945;SDS011;40846;44.788;20.486;2023-04-23T13:18:53;11.95;;;3.70;;
54945;SDS011;40846;44.788;20.486;2023-04-23T13:21:19;10.82;;;3.80;;
54945;SDS011;40846;44.788;20.486;2023-04-23T13:23:45;16.15;;;3.55;;
54945;SDS011;40846;44.788;20.486;2023-04-23T13:26:21;9.43;;;3.38;;
54945;SDS011;40846;44.788;20.486;2023-04-23T13:29:02;9.20;;;3.30;;
54945;SDS011;40846;44.788;20.486;2023-04-23T13:31:28;9.15;;;2.78;;
54945;SDS011;40846;44.788;20.486;2023-04-23T13:33:54;9.27;;;3.38;;
54945;SDS011;40846;44.788;20.486;2023-04-23T13:36:20;9.80;;;3.65;;
54945;SDS011;40846;44.788;20.486;2023-04-23T13:38:45;14.65;;;4.05;;
54945;SDS011;40846;44.788;20.486;2023-04-23T13:41:11;8.45;;;3.50;;
54945;SDS011;40846;44.788;20.486;2023-04-23T13:43:37;9.77;;;3.50;;
54945;SDS011;40846;44.788;20.486;2023-04-23T13:46:03;11.68;;;3.20;;
54945;SDS011;40846;44.788;20.486;2023-04-23T13:48:30;7.22;;;3.40;;
54945;SDS011;40846;44.788;20.486;2023-04-23T13:50:59;9.82;;;3.55;;
54945;SDS011;40846;44.788;20.486;2023-04-23T13:53:26;8.45;;;3.03;;
54945;SDS011;40846;44.788;20.486;2023-04-23T13:55:55;7.38;;;3.05;;
54945;SDS011;40846;44.788;20.486;2023-04-23T13:58:21;9.85;;;3.72;;
54945;SDS011;40846;44.788;20.486;2023-04-23T14:00:50;10.20;;;3.60;;
54945;SDS011;40846;44.788;20.486;2023-04-23T14:03:16;9.50;;;3.42;;
54945;SDS011;40846;44.788;20.486;2023-04-23T14:05:44;8.13;;;3.78;;
54945;SDS011;40846;44.788;20.486;2023-04-23T14:08:10;6.13;;;3.20;;
54945;SDS011;40846;44.788;20.486;2023-04-23T14:10:37;12.13;;;4.28;;
54945;SDS011;40846;44.788;20.486;2023-04-23T14:13:02;6.53;;;3.75;;
54945;SDS011;40846;44.788;20.486;2023-04-23T14:15:28;7.07;;;3.35;;
54945;SDS011;40846;44.788;20.486;2023-04-23T14:17:54;4.65;;;2.80;;
54945;SDS011;40846;44.788;20.486;2023-04-23T14:20:26;10.82;;;3.67;;
54945;SDS011;40846;44.788;20.486;2023-04-23T14:22:56;8.60;;;3.80;;
54945;SDS011;40846;44.788;20.486;2023-04-23T14:25:33;6.35;;;3.28;;
54945;SDS011;40846;44.788;20.486;2023-04-23T14:28:01;14.00;;;3.45;;
54945;SDS011;40846;44.788;20.486;2023-04-23T14:30:33;13.38;;;3.65;;
54945;SDS011;40846;44.788;20.486;2023-04-23T14:32:59;11.15;;;3.10;;
54945;SDS011;40846;44.788;20.486;2023-04-23T14:35:25;9.50;;;3.50;;
54945;SDS011;40846;44.788;20.486;2023-04-23T14:37:51;9.95;;;3.95;;
54945;SDS011;40846;44.788;20.486;2023-04-23T14:40:17;9.43;;;3.33;;
54945;SDS011;40846;44.788;20.486;2023-04-23T14:42:47;17.50;;;4.05;;
54945;SDS011;40846;44.788;20.486;2023-04-23T14:45:16;7.60;;;3.58;;
54945;SDS011;40846;44.788;20.486;2023-04-23T14:47:43;9.20;;;3.60;;
54945;SDS011;40846;44.788;20.486;2023-04-23T14:50:12;11.32;;;3.55;;
54945;SDS011;40846;44.788;20.486;2023-04-23T14:52:39;7.40;;;3.28;;